Time;durP1;ratioP1;P1;durP2;ratioP2;P2;SDS_P1;SDS_P2;PMS_P1;PMS_P2;Temp;Humidity;BMP_temperature;BMP_pressure;BME280_temperature;BME280_humidity;BME280_pressure;Samples;Min_cycle;Max_cycle;Signal;HPM_P1;HPM_P2
2022/08/18 00:01:13;;;;;;;6.40;5.78;;;24.50;58.20;;;;;;5019102;28;20029;-83
2022/08/18 00:03:40;;;;;;;7.25;6.55;;;24.50;58.30;;;;;;4999090;28;20459;-83
2022/08/18 00:06:06;;;;;;;8.18;6.35;;;24.50;58.40;;;;;;4983473;28;20614;-83
2022/08/18 00:08:32;;;;;;;8.10;6.32;;;24.50;58.40;;;;;;4983418;28;20032;-83
2022/08/18 00:10:58;;;;;;;7.18;6.03;;;24.40;58.40;;;;;;4982736;28;20429;-83
2022/08/18 00:13:24;;;;;;;6.75;6.00;;;24.40;58.40;;;;;;4982733;28;20037;-85
2022/08/18 00:15:50;;;;;;;6.25;5.40;;;24.40;58.40;;;;;;4981947;28;20022;-82
2022/08/18 00:18:17;;;;;;;5.90;5.30;;;24.40;58.40;;;;;;4997140;28;20129;-84
2022/08/18 00:20:43;;;;;;;6.82;6.05;;;24.40;58.40;;;;;;4981088;28;20104;-83
2022/08/18 00:23:09;;;;;;;6.38;5.60;;;24.40;58.40;;;;;;4997240;28;20026;-83
2022/08/18 00:25:34;;;;;;;6.88;6.10;;;24.40;58.40;;;;;;4997279;28;20026;-86
2022/08/18 00:28:03;;;;;;;5.60;4.95;;;24.40;58.40;;;;;;4981183;28;20386;-83
2022/08/18 00:30:29;;;;;;;6.45;5.53;;;24.40;58.50;;;;;;4981173;28;20109;-83
2022/08/18 00:32:57;;;;;;;6.20;5.50;;;24.40;58.50;;;;;;4980890;28;20121;-82
2022/08/18 00:35:29;;;;;;;6.72;5.50;;;24.30;58.40;;;;;;4980815;28;20391;-84
2022/08/18 00:37:59;;;;;;;6.75;5.18;;;24.30;58.40;;;;;;4993612;28;20434;-81
2022/08/18 00:40:37;;;;;;;6.38;5.35;;;24.30;58.50;;;;;;4980350;28;20026;-82
2022/08/18 00:43:07;;;;;;;6.55;5.15;;;24.30;58.50;;;;;;4996713;28;20091;-85
2022/08/18 00:45:35;;;;;;;6.00;5.30;;;24.30;58.40;;;;;;4996526;28;20033;-82
2022/08/18 00:48:03;;;;;;;5.72;4.78;;;24.30;58.50;;;;;;4997165;28;20109;-82
2022/08/18 00:50:36;;;;;;;5.78;5.18;;;24.30;58.50;;;;;;4976844;28;20495;-81
2022/08/18 00:53:21;;;;;;;6.80;5.45;;;24.30;58.50;;;;;;4977492;28;20107;-80
2022/08/18 00:55:49;;;;;;;6.05;4.90;;;24.20;58.60;;;;;;4994489;28;20030;-80
2022/08/18 00:58:31;;;;;;;6.47;5.15;;;24.20;58.50;;;;;;4977118;28;20085;-81
2022/08/18 01:01:03;;;;;;;6.57;5.32;;;24.20;58.60;;;;;;4993227;28;20038;-81
2022/08/18 01:03:32;;;;;;;6.28;5.55;;;24.20;58.50;;;;;;4960890;28;20023;-82
2022/08/18 01:06:03;;;;;;;6.28;5.10;;;24.20;58.60;;;;;;4993365;28;20470;-82
2022/08/18 01:08:31;;;;;;;5.57;4.75;;;24.20;58.60;;;;;;4977465;28;20030;-81
2022/08/18 01:11:00;;;;;;;7.07;5.10;;;24.20;59.20;;;;;;4992616;28;20085;-82
2022/08/18 01:13:30;;;;;;;5.50;4.80;;;24.20;58.60;;;;;;4993026;28;20034;-82
2022/08/18 01:21:49;;;;;;;5.35;4.70;;;24.20;58.60;;;;;;4977262;28;20088;-81
2022/08/18 01:24:15;;;;;;;4.90;4.18;;;24.20;58.60;;;;;;4983544;28;20461;-82
2022/08/18 01:26:45;;;;;;;6.03;4.88;;;24.20;58.60;;;;;;4998120;28;20023;-85
2022/08/18 01:29:11;;;;;;;5.63;4.65;;;24.10;58.60;;;;;;4964753;28;20035;-84
2022/08/18 01:31:55;;;;;;;6.35;5.43;;;24.10;58.60;;;;;;4980342;28;20038;-86
2022/08/18 01:34:24;;;;;;;5.38;4.80;;;24.10;58.80;;;;;;4981091;28;20038;-83
2022/08/18 01:36:53;;;;;;;6.30;4.97;;;24.10;58.60;;;;;;4996996;28;20089;-83
2022/08/18 01:39:22;;;;;;;5.35;4.65;;;24.00;58.60;;;;;;4965736;28;20069;-83
2022/08/18 01:41:48;;;;;;;5.63;4.85;;;24.10;58.70;;;;;;4980011;28;20037;-82
2022/08/18 01:44:14;;;;;;;5.68;5.03;;;24.10;58.70;;;;;;4997082;28;20034;-83
2022/08/18 01:46:43;;;;;;;5.72;5.05;;;24.10;58.70;;;;;;4980084;28;20030;-83
2022/08/18 01:49:13;;;;;;;5.35;4.57;;;24.00;58.80;;;;;;4980160;28;20169;-86
2022/08/18 01:51:41;;;;;;;5.20;4.53;;;24.00;58.80;;;;;;4980191;28;20046;-85
2022/08/18 01:54:10;;;;;;;5.43;4.25;;;24.00;58.80;;;;;;4980887;28;20042;-82
2022/08/18 01:56:36;;;;;;;5.32;4.50;;;24.00;58.80;;;;;;4979631;28;20030;-86
2022/08/18 01:59:02;;;;;;;5.50;4.43;;;24.00;58.80;;;;;;4996650;28;20038;-83
2022/08/18 02:01:27;;;;;;;5.28;4.47;;;24.00;58.80;;;;;;4979891;28;20030;-82
2022/08/18 02:03:59;;;;;;;5.25;4.43;;;24.00;58.80;;;;;;4997292;28;20062;-84
2022/08/18 02:06:25;;;;;;;5.38;4.45;;;24.00;58.90;;;;;;4979495;28;20110;-82
2022/08/18 02:08:51;;;;;;;4.70;4.03;;;24.00;58.90;;;;;;4980196;28;20056;-81
2022/08/18 02:11:18;;;;;;;5.63;4.53;;;24.00;58.90;;;;;;4963808;28;20595;-85
2022/08/18 02:13:44;;;;;;;4.95;4.13;;;24.00;58.90;;;;;;4995758;28;20113;-83
2022/08/18 02:16:10;;;;;;;5.22;4.40;;;24.00;58.90;;;;;;4979724;28;20066;-83
2022/08/18 02:18:36;;;;;;;4.82;4.18;;;24.00;58.90;;;;;;4980234;28;20034;-82
2022/08/18 02:21:13;;;;;;;4.93;4.00;;;24.00;58.90;;;;;;4979876;28;20034;-82
2022/08/18 02:23:43;;;;;;;4.65;3.90;;;23.90;58.90;;;;;;4995390;28;20077;-83
2022/08/18 02:26:12;;;;;;;4.60;3.92;;;23.90;58.90;;;;;;4979317;28;20029;-83
2022/08/18 02:28:38;;;;;;;4.60;3.65;;;23.90;58.90;;;;;;4977701;28;20022;-84
2022/08/18 02:31:19;;;;;;;4.90;3.85;;;23.90;58.90;;;;;;4947130;28;20085;-87
2022/08/18 02:33:45;;;;;;;5.05;4.10;;;23.90;59.00;;;;;;4995499;28;20023;-82
2022/08/18 02:36:11;;;;;;;4.53;3.78;;;23.90;58.90;;;;;;4995377;28;20379;-84
2022/08/18 02:38:38;;;;;;;4.57;3.67;;;23.90;58.90;;;;;;4979592;28;20417;-85
2022/08/18 02:41:05;;;;;;;4.10;3.50;;;23.80;58.90;;;;;;4979671;28;20034;-84
2022/08/18 02:43:31;;;;;;;4.80;3.70;;;23.90;58.90;;;;;;4995115;28;20026;-86
2022/08/18 02:45:58;;;;;;;5.00;4.00;;;23.80;58.90;;;;;;4978740;28;20030;-85
2022/08/18 02:48:44;;;;;;;4.43;3.30;;;23.80;58.90;;;;;;4996278;28;20098;-88
2022/08/18 02:51:13;;;;;;;4.47;3.38;;;23.80;58.90;;;;;;5015626;28;20045;-83
2022/08/18 02:53:41;;;;;;;4.25;3.25;;;23.80;58.90;;;;;;4981735;28;20045;-86
2022/08/18 02:58:49;;;;;;;4.45;3.30;;;23.80;59.00;;;;;;5015348;28;20026;-81
2022/08/18 03:01:15;;;;;;;4.32;3.50;;;23.80;58.90;;;;;;4981887;28;20034;-82
2022/08/18 03:03:41;;;;;;;4.18;3.47;;;23.80;58.90;;;;;;4981442;28;20034;-89
2022/08/18 03:06:06;;;;;;;4.47;3.20;;;23.80;58.90;;;;;;4982077;28;20041;-84
2022/08/18 03:08:32;;;;;;;4.05;3.47;;;23.70;58.90;;;;;;4998133;28;20417;-89
2022/08/18 03:10:58;;;;;;;4.43;3.40;;;23.80;59.00;;;;;;4981921;28;20033;-85
2022/08/18 03:13:24;;;;;;;4.03;3.03;;;23.70;59.00;;;;;;4997847;28;20037;-84
2022/08/18 03:15:50;;;;;;;4.35;3.60;;;23.70;59.00;;;;;;5015776;28;20030;-82
2022/08/18 03:18:16;;;;;;;4.90;3.20;;;23.70;59.00;;;;;;4997992;28;20286;-86
2022/08/18 03:20:45;;;;;;;4.18;3.28;;;23.70;59.00;;;;;;4981796;28;20041;-82
2022/08/18 03:23:11;;;;;;;3.63;3.03;;;23.70;59.00;;;;;;4997990;28;20117;-82
2022/08/18 03:25:48;;;;;;;3.92;3.25;;;23.70;59.00;;;;;;4981564;28;20029;-82
2022/08/18 03:28:15;;;;;;;4.22;3.40;;;23.70;59.10;;;;;;4997774;28;20029;-83
2022/08/18 03:30:42;;;;;;;3.17;2.67;;;23.60;59.00;;;;;;4997685;28;20478;-82
2022/08/18 03:33:09;;;;;;;4.10;3.17;;;23.70;59.00;;;;;;4981810;28;20040;-82
2022/08/18 03:35:36;;;;;;;3.20;2.85;;;23.70;59.10;;;;;;4981710;28;20431;-86
2022/08/18 03:38:02;;;;;;;3.95;3.30;;;23.70;59.10;;;;;;4982012;28;20034;-84
2022/08/18 03:40:28;;;;;;;5.18;3.00;;;23.60;59.00;;;;;;4996984;28;20030;-82
2022/08/18 03:42:54;;;;;;;3.83;2.97;;;23.70;59.10;;;;;;4997440;28;20033;-83
2022/08/18 03:45:22;;;;;;;4.50;3.25;;;23.60;59.10;;;;;;5014898;28;20026;-82
2022/08/18 03:47:50;;;;;;;3.67;2.95;;;23.60;59.10;;;;;;4966032;28;20356;-81
2022/08/18 03:50:17;;;;;;;4.03;2.97;;;23.60;59.10;;;;;;4981110;28;20053;-82
2022/08/18 03:52:47;;;;;;;3.60;2.92;;;23.60;59.10;;;;;;5014645;28;20490;-90
2022/08/18 03:55:14;;;;;;;3.65;3.05;;;23.60;59.20;;;;;;4981495;28;20065;-84
2022/08/18 03:57:42;;;;;;;4.00;3.33;;;23.60;59.20;;;;;;5014634;28;20061;-83
2022/08/18 04:00:08;;;;;;;4.05;3.03;;;23.50;59.20;;;;;;4980417;28;20033;-83
2022/08/18 04:02:34;;;;;;;4.38;3.10;;;23.60;59.20;;;;;;4981174;28;20026;-84
2022/08/18 04:05:00;;;;;;;4.53;3.33;;;23.50;59.10;;;;;;5014899;28;20030;-82
2022/08/18 04:07:26;;;;;;;4.32;3.50;;;23.60;59.20;;;;;;4980945;28;20037;-82
2022/08/18 04:09:51;;;;;;;3.85;3.28;;;23.50;59.10;;;;;;4980999;28;20080;-82
2022/08/18 04:12:17;;;;;;;3.65;2.70;;;23.50;59.10;;;;;;4996625;28;20037;-82
2022/08/18 04:14:47;;;;;;;4.22;2.92;;;23.50;59.10;;;;;;4964587;28;20034;-82
2022/08/18 04:17:13;;;;;;;3.33;2.72;;;23.50;59.20;;;;;;4996698;28;20070;-82
2022/08/18 04:19:38;;;;;;;3.67;2.90;;;23.50;59.10;;;;;;4996995;28;20445;-82
2022/08/18 04:22:04;;;;;;;3.50;2.83;;;23.50;59.20;;;;;;4980587;28;20042;-84
2022/08/18 04:24:33;;;;;;;3.47;2.92;;;23.50;59.20;;;;;;4996414;28;20034;-88
2022/08/18 04:27:01;;;;;;;3.67;3.00;;;23.50;59.20;;;;;;4996512;28;20451;-82
2022/08/18 04:29:28;;;;;;;3.60;3.20;;;23.50;59.20;;;;;;5014029;28;20034;-83
2022/08/18 04:31:54;;;;;;;3.13;2.63;;;23.50;59.20;;;;;;4980238;28;20041;-82
2022/08/18 04:34:21;;;;;;;3.08;2.45;;;23.50;59.20;;;;;;4996394;28;20034;-82
2022/08/18 04:36:52;;;;;;;3.65;2.75;;;23.50;59.20;;;;;;4980185;28;20040;-82
2022/08/18 04:39:18;;;;;;;3.55;2.75;;;23.50;59.20;;;;;;4996742;28;20041;-83
2022/08/18 04:41:43;;;;;;;3.78;2.90;;;23.50;59.20;;;;;;4980249;28;20030;-85
2022/08/18 04:44:11;;;;;;;3.58;2.80;;;23.50;59.20;;;;;;4980322;28;20061;-82
2022/08/18 04:46:40;;;;;;;3.42;2.45;;;23.40;59.20;;;;;;4980671;28;20041;-81
2022/08/18 04:49:08;;;;;;;3.03;2.42;;;23.40;59.20;;;;;;4979954;28;20100;-83
2022/08/18 04:51:34;;;;;;;3.38;2.53;;;23.50;59.30;;;;;;4979232;28;20052;-82
2022/08/18 04:54:00;;;;;;;4.00;2.80;;;23.40;59.20;;;;;;4980043;28;20095;-84
2022/08/18 04:56:32;;;;;;;3.60;2.70;;;23.40;59.20;;;;;;4965040;28;20442;-81
2022/08/18 04:59:06;;;;;;;3.25;2.80;;;23.40;59.30;;;;;;4996580;28;20112;-81
2022/08/18 05:01:38;;;;;;;3.63;2.72;;;23.40;59.30;;;;;;4996605;28;20057;-82
2022/08/18 05:04:04;;;;;;;2.45;2.25;;;23.40;59.30;;;;;;4996551;28;20037;-83
2022/08/18 05:06:32;;;;;;;4.15;2.90;;;23.40;59.30;;;;;;4980275;28;20026;-83
2022/08/18 05:09:01;;;;;;;3.97;2.80;;;23.40;59.30;;;;;;4996125;28;20026;-82
2022/08/18 05:11:32;;;;;;;3.13;2.47;;;23.40;59.40;;;;;;4996905;28;20113;-82
2022/08/18 05:13:59;;;;;;;4.20;2.90;;;23.40;59.30;;;;;;4980151;28;20026;-83
2022/08/18 05:16:26;;;;;;;3.42;2.90;;;23.40;59.40;;;;;;4996711;28;20030;-82
2022/08/18 05:18:53;;;;;;;3.25;2.65;;;23.40;59.40;;;;;;4996382;28;20080;-83
2022/08/18 05:21:20;;;;;;;3.30;2.80;;;23.40;59.40;;;;;;4980302;28;20034;-81
2022/08/18 05:23:48;;;;;;;3.58;3.00;;;23.40;59.40;;;;;;4996479;28;20034;-80
2022/08/18 05:26:16;;;;;;;3.63;3.03;;;23.40;59.50;;;;;;5013868;28;20029;-82
2022/08/18 05:28:43;;;;;;;4.60;2.80;;;23.40;59.50;;;;;;4980083;28;20026;-81
2022/08/18 05:31:21;;;;;;;3.80;2.70;;;23.40;60.20;;;;;;4997253;28;20022;-81
2022/08/18 05:33:48;;;;;;;4.10;2.70;;;23.30;59.60;;;;;;4995817;28;20045;-80
2022/08/18 05:36:25;;;;;;;3.95;2.70;;;23.30;59.50;;;;;;4980111;28;20462;-82
2022/08/18 05:39:17;;;;;;;3.85;3.00;;;23.30;59.50;;;;;;5013699;28;20026;-83
2022/08/18 05:42:21;;;;;;;3.20;2.63;;;23.30;59.60;;;;;;4997261;28;20065;-84
2022/08/18 05:44:52;;;;;;;3.83;2.70;;;23.30;59.60;;;;;;5011006;28;20548;-85
2022/08/18 05:47:30;;;;;;;4.30;3.05;;;23.30;59.50;;;;;;4996025;28;20026;-84
2022/08/18 05:50:02;;;;;;;4.05;2.97;;;23.30;59.60;;;;;;4995354;28;20042;-84
2022/08/18 05:52:57;;;;;;;3.58;3.00;;;23.30;59.60;;;;;;4996216;28;20029;-83
2022/08/18 05:58:51;;;;;;;3.55;2.42;;;23.30;59.40;;;;;;4995420;28;19921;-84
2022/08/18 06:01:22;;;;;;;3.17;2.60;;;23.30;59.60;;;;;;4984002;28;20046;-84
2022/08/18 06:03:51;;;;;;;3.40;2.70;;;23.20;59.60;;;;;;4998208;28;20022;-85
2022/08/18 06:06:24;;;;;;;4.03;2.63;;;23.20;59.70;;;;;;4999220;28;20029;-84
2022/08/18 06:09:13;;;;;;;4.22;2.60;;;23.20;59.80;;;;;;4999600;28;20061;-86
2022/08/18 06:11:38;;;;;;;2.97;2.67;;;23.30;59.90;;;;;;4989864;28;20136;-84
2022/08/18 06:14:04;;;;;;;4.68;2.85;;;23.20;59.70;;;;;;4999045;28;20118;-85
2022/08/18 06:16:47;;;;;;;4.25;2.85;;;23.30;59.80;;;;;;4998880;28;20088;-86
2022/08/18 06:19:44;;;;;;;4.70;2.70;;;23.30;59.90;;;;;;5016997;28;20061;-84
2022/08/18 06:22:35;;;;;;;3.58;2.67;;;23.30;59.90;;;;;;4998581;28;20030;-84
2022/08/18 06:25:28;;;;;;;3.53;2.72;;;23.30;59.90;;;;;;4999018;28;20041;-84
2022/08/18 06:28:02;;;;;;;3.72;2.80;;;23.30;60.00;;;;;;5016600;28;20075;-85
2022/08/18 06:30:37;;;;;;;3.58;2.60;;;23.30;60.10;;;;;;4983030;28;20026;-85
2022/08/18 06:33:18;;;;;;;3.25;2.55;;;23.30;59.90;;;;;;4999067;28;20037;-83
2022/08/18 06:35:46;;;;;;;3.92;2.45;;;23.30;60.00;;;;;;5016294;28;20040;-82
2022/08/18 06:38:44;;;;;;;2.90;2.45;;;23.30;59.80;;;;;;4998841;28;20033;-83
2022/08/18 06:41:19;;;;;;;3.70;2.47;;;23.30;60.20;;;;;;4959113;28;20397;-83
2022/08/18 06:43:57;;;;;;;3.58;2.63;;;23.30;60.10;;;;;;4998818;28;20030;-84
2022/08/18 06:46:50;;;;;;;2.20;2.00;;;23.40;60.30;;;;;;4982476;28;20113;-83
2022/08/18 06:49:25;;;;;;;3.25;2.33;;;23.40;60.10;;;;;;4998565;28;20056;-84
2022/08/18 06:51:51;;;;;;;3.38;2.50;;;23.40;60.10;;;;;;4998583;28;20057;-83
2022/08/18 06:54:16;;;;;;;3.63;2.70;;;23.40;60.10;;;;;;4981962;28;20482;-84
2022/08/18 06:56:42;;;;;;;3.30;2.55;;;23.40;60.30;;;;;;5015878;28;20062;-83
2022/08/18 06:59:23;;;;;;;3.50;2.83;;;23.40;60.50;;;;;;4998085;28;20049;-83
2022/08/18 07:01:53;;;;;;;4.03;2.40;;;23.40;60.80;;;;;;4998174;28;20034;-85
2022/08/18 07:04:58;;;;;;;3.78;2.95;;;23.40;60.70;;;;;;4982024;28;20041;-83
2022/08/18 07:07:40;;;;;;;3.35;2.83;;;23.40;60.80;;;;;;5006937;28;20076;-83
2022/08/18 07:10:12;;;;;;;3.50;2.70;;;23.40;60.70;;;;;;4982156;28;20061;-84
2022/08/18 07:12:38;;;;;;;3.58;2.60;;;23.50;60.70;;;;;;4998255;28;20462;-84
2022/08/18 07:15:06;;;;;;;2.88;2.50;;;23.50;60.60;;;;;;4980948;28;20076;-83
2022/08/18 07:17:40;;;;;;;3.00;2.45;;;23.50;60.60;;;;;;4998356;28;20048;-83
2022/08/18 07:20:22;;;;;;;2.78;2.45;;;23.50;60.60;;;;;;4998295;28;20068;-83
2022/08/18 07:23:01;;;;;;;4.20;2.58;;;23.50;60.70;;;;;;4998112;28;20117;-84
2022/08/18 07:25:31;;;;;;;2.65;2.40;;;23.50;60.70;;;;;;4997642;28;20034;-85
2022/08/18 07:28:00;;;;;;;2.63;2.13;;;23.50;60.70;;;;;;5015102;28;20495;-84
2022/08/18 07:30:35;;;;;;;2.67;2.38;;;23.60;60.70;;;;;;4981290;28;20061;-84
2022/08/18 07:33:17;;;;;;;3.70;2.67;;;23.60;60.80;;;;;;4997682;28;20439;-83
2022/08/18 07:35:47;;;;;;;3.78;2.60;;;23.60;61.00;;;;;;5014877;28;20475;-84
2022/08/18 07:38:32;;;;;;;3.50;2.40;;;23.60;60.90;;;;;;4998225;28;20034;-83
2022/08/18 07:41:19;;;;;;;2.83;2.33;;;23.60;61.20;;;;;;5014829;28;20593;-84
2022/08/18 07:44:17;;;;;;;3.65;2.50;;;23.70;61.00;;;;;;5015075;28;20535;-84
2022/08/18 07:46:47;;;;;;;3.13;2.35;;;23.70;61.10;;;;;;4997504;28;20034;-84
2022/08/18 07:49:19;;;;;;;3.67;2.40;;;23.70;61.00;;;;;;4997241;28;20052;-83
2022/08/18 07:51:46;;;;;;;2.97;2.30;;;23.70;61.00;;;;;;5015003;28;20056;-84
2022/08/18 07:54:18;;;;;;;3.25;2.38;;;23.80;61.00;;;;;;5014760;28;20108;-83
2022/08/18 07:56:58;;;;;;;3.65;2.55;;;23.80;61.00;;;;;;4997351;28;20034;-83
2022/08/18 07:59:40;;;;;;;2.85;2.30;;;23.80;61.20;;;;;;4997105;28;20471;-83
2022/08/18 08:02:14;;;;;;;3.60;2.33;;;23.80;61.20;;;;;;4997556;28;20022;-85
2022/08/18 08:05:16;;;;;;;3.25;2.50;;;23.80;61.10;;;;;;4997361;28;20029;-87
2022/08/18 08:07:56;;;;;;;2.35;2.13;;;23.80;61.10;;;;;;4997568;28;20030;-84
2022/08/18 08:10:48;;;;;;;3.47;2.50;;;23.90;61.00;;;;;;4980845;28;20061;-84
2022/08/18 08:13:46;;;;;;;3.10;2.10;;;23.90;61.00;;;;;;4997144;28;20025;-92
2022/08/18 08:16:36;;;;;;;3.15;2.25;;;23.90;60.90;;;;;;4948726;28;20053;-83
2022/08/18 08:19:23;;;;;;;3.10;2.20;;;24.00;60.70;;;;;;4981284;28;20030;-84
2022/08/18 08:22:28;;;;;;;3.42;2.20;;;24.00;60.70;;;;;;4998108;28;20489;-86
2022/08/18 08:25:21;;;;;;;2.70;2.20;;;24.00;60.60;;;;;;5014608;28;20034;-84
2022/08/18 08:28:08;;;;;;;2.80;2.22;;;24.10;60.50;;;;;;4997248;28;20381;-84
2022/08/18 08:30:58;;;;;;;2.28;2.05;;;24.10;60.30;;;;;;5014455;28;20030;-84
2022/08/18 08:33:33;;;;;;;2.15;1.92;;;24.20;60.40;;;;;;4996598;28;20077;-86
2022/08/18 08:36:29;;;;;;;2.78;2.08;;;24.20;60.20;;;;;;5014138;28;20378;-80
2022/08/18 08:39:10;;;;;;;3.35;2.30;;;24.20;60.20;;;;;;4980863;28;20103;-80
2022/08/18 08:41:42;;;;;;;2.80;2.17;;;24.30;60.10;;;;;;4996952;28;20061;-85
2022/08/18 08:44:23;;;;;;;3.00;2.40;;;24.40;60.00;;;;;;4996687;28;20034;-83
2022/08/18 08:46:54;;;;;;;4.85;2.50;;;24.40;60.00;;;;;;5013505;28;20528;-80
2022/08/18 08:49:41;;;;;;;3.63;2.45;;;24.50;59.80;;;;;;5013629;28;20052;-81
2022/08/18 08:52:28;;;;;;;2.67;2.17;;;24.50;59.80;;;;;;4996234;28;20060;-83
2022/08/18 08:55:03;;;;;;;2.38;2.08;;;24.60;59.80;;;;;;4996394;28;20113;-81
2022/08/18 08:57:38;;;;;;;3.15;2.30;;;24.60;59.60;;;;;;4995894;28;20065;-81
2022/08/18 09:00:07;;;;;;;2.47;2.13;;;24.60;59.50;;;;;;4980267;28;20494;-81
2022/08/18 09:02:51;;;;;;;3.17;2.45;;;24.70;59.50;;;;;;4996119;28;20022;-83
2022/08/18 09:05:20;;;;;;;3.00;2.25;;;24.70;59.40;;;;;;4996240;28;20040;-84
2022/08/18 09:08:04;;;;;;;3.95;2.30;;;24.80;59.30;;;;;;4996209;28;20021;-82
2022/08/18 09:10:48;;;;;;;2.75;2.20;;;24.80;59.40;;;;;;4995938;28;20029;-82
2022/08/18 09:13:29;;;;;;;2.40;2.20;;;24.80;59.30;;;;;;4996522;28;20029;-85
2022/08/18 09:16:09;;;;;;;2.78;2.10;;;24.80;59.20;;;;;;4979587;28;20351;-81
2022/08/18 09:19:14;;;;;;;2.50;2.00;;;24.90;59.20;;;;;;4979285;28;20062;-83
2022/08/18 09:22:15;;;;;;;2.33;1.92;;;24.90;59.20;;;;;;4995661;28;20505;-81
2022/08/18 09:24:53;;;;;;;2.40;2.17;;;25.00;59.20;;;;;;5013594;28;20042;-80
2022/08/18 09:27:31;;;;;;;2.20;1.88;;;25.00;59.10;;;;;;4979911;28;20034;-82
2022/08/18 09:30:04;;;;;;;2.55;2.10;;;25.00;59.00;;;;;;4995979;28;20038;-82
2022/08/18 09:32:40;;;;;;;3.17;2.22;;;25.10;58.90;;;;;;4995915;28;20022;-84
2022/08/18 09:35:44;;;;;;;2.65;2.05;;;25.10;58.90;;;;;;4995335;28;20088;-83
2022/08/18 09:44:11;;;;;;;2.17;1.77;;;25.20;58.50;;;;;;5016757;28;20031;-82
2022/08/18 09:46:43;;;;;;;2.20;1.80;;;25.30;58.60;;;;;;4982981;28;20033;-83
2022/08/18 09:49:22;;;;;;;2.67;2.03;;;25.30;58.60;;;;;;5017384;28;20049;-83
2022/08/18 09:51:53;;;;;;;2.70;2.10;;;25.40;58.70;;;;;;5016584;28;20108;-82
2022/08/18 09:54:23;;;;;;;2.25;2.05;;;25.40;58.50;;;;;;4999044;28;20116;-81
2022/08/18 09:56:48;;;;;;;1.92;1.75;;;25.50;58.50;;;;;;4982580;28;20025;-81
2022/08/18 09:59:32;;;;;;;2.45;2.13;;;25.50;58.40;;;;;;4999320;28;20152;-84
2022/08/18 10:02:10;;;;;;;2.38;1.90;;;25.60;58.50;;;;;;5016611;28;20466;-82
2022/08/18 10:04:51;;;;;;;2.05;1.75;;;25.60;58.30;;;;;;4999348;28;20061;-83
2022/08/18 10:07:32;;;;;;;2.25;1.90;;;25.70;58.20;;;;;;4984500;28;20068;-83
2022/08/18 10:10:29;;;;;;;2.00;1.80;;;25.70;58.30;;;;;;4999224;28;20441;-78
2022/08/18 10:13:16;;;;;;;2.25;1.92;;;25.80;58.30;;;;;;4999170;28;20101;-77
2022/08/18 10:15:56;;;;;;;2.40;1.90;;;25.80;58.10;;;;;;5016637;28;20025;-76
2022/08/18 10:18:50;;;;;;;2.08;1.85;;;25.90;58.10;;;;;;5016658;28;20034;-83
2022/08/18 10:21:20;;;;;;;1.90;1.63;;;25.90;58.10;;;;;;4983022;28;20022;-82
2022/08/18 10:23:55;;;;;;;2.30;1.88;;;26.00;58.10;;;;;;4982869;28;20199;-82
2022/08/18 10:26:30;;;;;;;2.30;2.05;;;26.00;58.10;;;;;;5016926;28;20032;-80
2022/08/18 10:29:04;;;;;;;2.22;1.80;;;26.00;58.00;;;;;;4982372;28;20037;-80
2022/08/18 10:31:51;;;;;;;2.10;1.90;;;26.10;58.00;;;;;;4998704;28;20503;-80
2022/08/18 10:34:42;;;;;;;2.08;1.88;;;26.10;57.80;;;;;;4998933;28;20030;-80
2022/08/18 10:37:24;;;;;;;2.53;1.88;;;26.20;57.90;;;;;;4998325;28;20073;-82
2022/08/18 10:39:58;;;;;;;1.90;1.70;;;26.20;57.80;;;;;;4998501;28;20029;-82
2022/08/18 10:42:37;;;;;;;2.33;1.70;;;26.20;57.70;;;;;;5016560;28;20041;-81
2022/08/18 10:45:33;;;;;;;2.00;1.77;;;26.30;57.80;;;;;;4998997;28;20733;-81
2022/08/18 10:47:59;;;;;;;;;;;26.40;57.90;;;;;;4999061;28;20034;-82
2022/08/18 10:50:27;;;;;;;1.70;1.60;;;26.40;57.60;;;;;;4996712;28;19964;-82
2022/08/18 10:53:10;;;;;;;1.80;1.70;;;26.40;57.50;;;;;;4998185;28;20482;-81
2022/08/18 10:56:05;;;;;;;1.90;1.70;;;26.40;57.70;;;;;;4998509;28;20081;-82
2022/08/18 10:58:47;;;;;;;1.65;1.45;;;26.40;57.60;;;;;;4992394;28;20045;-82
2022/08/18 11:01:25;;;;;;;2.17;1.67;;;26.50;57.60;;;;;;4997924;28;20026;-82
2022/08/18 11:04:19;;;;;;;2.00;1.80;;;26.50;57.60;;;;;;4998078;28;20034;-82
2022/08/18 11:06:49;;;;;;;1.98;1.73;;;26.50;57.60;;;;;;4997915;28;20084;-81
2022/08/18 11:09:27;;;;;;;2.05;1.80;;;26.60;57.50;;;;;;4998148;28;20037;-82
2022/08/18 11:11:56;;;;;;;2.50;1.90;;;26.60;57.50;;;;;;4998015;28;20045;-81
2022/08/18 11:14:53;;;;;;;2.25;2.00;;;26.70;57.40;;;;;;4997980;28;20038;-82
2022/08/18 11:17:31;;;;;;;2.33;2.00;;;26.70;57.50;;;;;;4998218;28;20068;-82
2022/08/18 11:19:59;;;;;;;2.58;2.08;;;26.80;57.40;;;;;;5014920;28;20092;-82
2022/08/18 11:22:32;;;;;;;2.17;1.98;;;26.80;57.40;;;;;;4997693;28;20438;-83
2022/08/18 11:24:59;;;;;;;2.30;1.83;;;26.80;57.30;;;;;;4981981;28;20470;-84
2022/08/18 11:27:28;;;;;;;2.20;1.85;;;26.80;57.30;;;;;;5015161;28;20032;-81
2022/08/18 11:29:59;;;;;;;2.38;2.08;;;26.90;57.30;;;;;;4998218;28;20022;-81
2022/08/18 11:32:33;;;;;;;2.53;2.00;;;26.90;57.30;;;;;;4998317;28;20077;-81
2022/08/18 11:35:03;;;;;;;2.50;2.00;;;26.90;57.30;;;;;;4997527;28;20033;-83
2022/08/18 11:37:44;;;;;;;3.10;2.20;;;26.90;57.20;;;;;;5014955;28;20113;-79
2022/08/18 11:40:26;;;;;;;2.75;2.00;;;26.90;57.20;;;;;;4997256;28;20085;-80
2022/08/18 11:42:57;;;;;;;2.35;2.15;;;27.00;57.30;;;;;;4997739;28;20034;-80
2022/08/18 11:45:28;;;;;;;2.35;2.03;;;27.00;57.20;;;;;;5014490;28;20073;-81
2022/08/18 11:48:27;;;;;;;2.05;1.88;;;27.00;57.80;;;;;;5014891;28;20471;-81
2022/08/18 11:50:55;;;;;;;2.42;1.75;;;27.00;57.30;;;;;;5014696;28;20121;-81
2022/08/18 11:53:37;;;;;;;2.08;1.88;;;27.00;57.10;;;;;;4997582;28;20034;-81
2022/08/18 11:56:20;;;;;;;2.83;2.05;;;27.10;57.30;;;;;;4996906;28;20157;-83
2022/08/18 11:58:52;;;;;;;2.38;2.00;;;27.00;57.10;;;;;;4982111;28;20088;-81
2022/08/18 12:01:30;;;;;;;2.40;1.83;;;27.10;57.20;;;;;;4996591;28;20079;-81
2022/08/18 12:03:58;;;;;;;2.25;1.98;;;27.10;57.20;;;;;;4997167;28;20041;-82
2022/08/18 12:06:28;;;;;;;2.55;2.13;;;27.10;57.10;;;;;;4996757;28;20056;-81
2022/08/18 12:09:00;;;;;;;2.53;2.33;;;27.10;57.10;;;;;;4997199;28;20029;-82
2022/08/18 12:11:34;;;;;;;2.38;2.17;;;27.10;57.10;;;;;;4980861;28;20098;-81
2022/08/18 12:14:07;;;;;;;2.75;2.00;;;27.10;57.00;;;;;;4980961;28;20127;-83
2022/08/18 12:16:34;;;;;;;2.20;2.00;;;27.10;57.00;;;;;;5014488;28;20041;-82
2022/08/18 12:19:00;;;;;;;4.35;2.50;;;27.20;57.10;;;;;;4980744;28;20281;-82
2022/08/18 12:21:26;;;;;;;2.90;2.10;;;27.20;57.00;;;;;;4999397;28;20034;-82
2022/08/18 12:23:52;;;;;;;2.80;2.20;;;27.20;57.00;;;;;;4981364;28;20037;-82
2022/08/18 12:26:19;;;;;;;2.78;2.47;;;27.20;57.00;;;;;;4996857;28;20036;-82
2022/08/18 12:28:45;;;;;;;2.60;2.33;;;27.20;56.90;;;;;;4981009;28;20089;-81
2022/08/18 12:31:11;;;;;;;2.28;1.90;;;27.20;56.90;;;;;;4980710;28;20109;-82
2022/08/18 12:33:37;;;;;;;2.58;2.15;;;27.20;56.90;;;;;;5000934;28;20034;-84
2022/08/18 12:36:04;;;;;;;2.47;2.00;;;27.20;56.90;;;;;;5000499;28;20034;-83
2022/08/18 12:38:31;;;;;;;2.45;2.25;;;27.20;56.90;;;;;;5017170;28;20029;-82
2022/08/18 12:40:58;;;;;;;2.63;2.28;;;27.30;57.00;;;;;;5016504;28;20080;-83
2022/08/18 12:43:24;;;;;;;2.55;2.30;;;27.20;56.90;;;;;;4980432;28;20068;-83
2022/08/18 12:45:50;;;;;;;3.38;2.50;;;27.30;57.10;;;;;;5013823;28;20030;-82
2022/08/18 12:48:16;;;;;;;2.40;2.20;;;27.20;57.00;;;;;;4996750;28;20029;-82
2022/08/18 12:50:43;;;;;;;2.35;2.15;;;27.20;57.60;;;;;;4996482;28;20065;-82
2022/08/18 12:53:10;;;;;;;2.50;2.13;;;27.30;57.10;;;;;;4977450;28;20042;-82
2022/08/18 12:55:40;;;;;;;2.15;1.92;;;27.20;57.00;;;;;;4960849;28;20030;-82
2022/08/18 12:58:06;;;;;;;2.72;2.28;;;27.30;57.10;;;;;;4977008;28;20031;-82
2022/08/18 13:00:34;;;;;;;2.63;2.35;;;27.30;57.10;;;;;;4977586;28;20077;-81
2022/08/18 13:02:59;;;;;;;2.70;2.33;;;27.20;57.00;;;;;;4960917;28;20402;-81
2022/08/18 13:05:27;;;;;;;2.63;2.15;;;27.20;57.00;;;;;;4977367;28;20034;-81
2022/08/18 13:07:56;;;;;;;2.55;2.20;;;27.30;57.10;;;;;;4976867;28;20031;-82
2022/08/18 13:10:23;;;;;;;2.95;2.25;;;27.30;57.10;;;;;;4945896;28;20424;-79
2022/08/18 13:12:48;;;;;;;2.25;2.05;;;27.30;57.10;;;;;;4960020;28;20044;-82
2022/08/18 13:15:14;;;;;;;2.60;2.20;;;27.30;57.10;;;;;;4976680;28;20034;-81
2022/08/18 13:17:40;;;;;;;3.15;2.40;;;27.30;57.10;;;;;;4944834;28;20038;-82
2022/08/18 13:20:11;;;;;;;2.78;2.35;;;27.30;57.10;;;;;;4960501;28;20029;-83
2022/08/18 13:22:40;;;;;;;3.85;2.30;;;27.30;57.10;;;;;;4994637;28;20034;-83
2022/08/18 13:25:09;;;;;;;2.72;2.20;;;27.30;57.10;;;;;;4976269;28;20037;-84
2022/08/18 13:27:37;;;;;;;2.33;2.13;;;27.30;57.10;;;;;;4960347;28;20057;-82
2022/08/18 13:30:09;;;;;;;2.35;2.15;;;27.30;57.10;;;;;;4960730;28;20121;-82
2022/08/18 13:32:35;;;;;;;2.85;2.25;;;27.30;57.10;;;;;;4960482;28;20475;-82
2022/08/18 13:35:01;;;;;;;2.58;2.22;;;27.30;57.10;;;;;;4977069;28;20045;-82
2022/08/18 13:37:27;;;;;;;3.15;2.42;;;27.30;57.10;;;;;;4976113;28;20039;-81